JJA1469 RJFF-RKPC
Flight info
| Callsign | JJA1469 |
|---|---|
| Flight time | 0h 52m |
| Altitude | 32000 |
| Route | DGC A595 TAMNA TAMNA2P |
| Aircraft | B738/M-SDE2E3FGHIRWXY/LB1 |
Departure
| Time | 2026-05-09 05:02 |
|---|---|
| Airport | Fukuoka Airport (RJFF) |
Arrival
| Time | 2026-05-09 05:54 |
|---|---|
| Airport | Jeju International Airport (RKPC) |
| Time | Latitude | Longitude | Altitude | Speed | Heading |
|---|---|---|---|---|---|
| 2026-05-09 04:16 | 33.58754 | 130.44381 | 29 ft | 0 kts | 240° |
| 2026-05-09 04:48 | 33.58762 | 130.44398 | 30 ft | 2 kts | 240° |
| 2026-05-09 04:48 | 33.58771 | 130.44415 | 28 ft | 2 kts | 241° |
| 2026-05-09 04:48 | 33.58779 | 130.44432 | 29 ft | 2 kts | 241° |
| 2026-05-09 04:49 | 33.58787 | 130.44450 | 31 ft | 2 kts | 241° |
| 2026-05-09 04:49 | 33.58795 | 130.44467 | 31 ft | 2 kts | 240° |
| 2026-05-09 04:49 | 33.58803 | 130.44484 | 30 ft | 2 kts | 240° |
| 2026-05-09 04:49 | 33.58811 | 130.44501 | 30 ft | 2 kts | 237° |
| 2026-05-09 04:50 | 33.58822 | 130.44517 | 31 ft | 2 kts | 210° |
| 2026-05-09 04:50 | 33.58838 | 130.44519 | 31 ft | 2 kts | 153° |
| 2026-05-09 04:50 | 33.58850 | 130.44511 | 30 ft | 1 kts | 151° |
| 2026-05-09 04:50 | 33.58851 | 130.44510 | 30 ft | 0 kts | 151° |
| 2026-05-09 04:54 | 33.58847 | 130.44513 | 31 ft | 2 kts | 151° |
| 2026-05-09 04:55 | 33.58820 | 130.44531 | 29 ft | 6 kts | 151° |
| 2026-05-09 04:55 | 33.58773 | 130.44562 | 30 ft | 9 kts | 151° |
| 2026-05-09 04:55 | 33.58716 | 130.44600 | 32 ft | 10 kts | 151° |
| 2026-05-09 04:55 | 33.58654 | 130.44641 | 36 ft | 11 kts | 151° |
| 2026-05-09 04:56 | 33.58582 | 130.44690 | 36 ft | 13 kts | 150° |
| 2026-05-09 04:56 | 33.58491 | 130.44750 | 36 ft | 16 kts | 152° |
| 2026-05-09 04:56 | 33.58390 | 130.44817 | 38 ft | 17 kts | 151° |
| 2026-05-09 04:56 | 33.58275 | 130.44894 | 34 ft | 21 kts | 150° |
| 2026-05-09 04:57 | 33.58147 | 130.44980 | 37 ft | 21 kts | 150° |
| 2026-05-09 04:57 | 33.58023 | 130.45063 | 35 ft | 21 kts | 151° |
| 2026-05-09 04:57 | 33.57893 | 130.45151 | 36 ft | 21 kts | 150° |
| 2026-05-09 04:57 | 33.57765 | 130.45238 | 37 ft | 21 kts | 150° |
| 2026-05-09 04:58 | 33.57645 | 130.45319 | 40 ft | 18 kts | 150° |
| 2026-05-09 04:58 | 33.57534 | 130.45394 | 40 ft | 19 kts | 150° |
| 2026-05-09 04:58 | 33.57419 | 130.45473 | 38 ft | 15 kts | 149° |
| 2026-05-09 04:58 | 33.57400 | 130.45580 | 39 ft | 15 kts | 60° |
| 2026-05-09 04:59 | 33.57450 | 130.45687 | 44 ft | 14 kts | 62° |
| 2026-05-09 04:59 | 33.57510 | 130.45785 | 42 ft | 15 kts | 23° |
| 2026-05-09 04:59 | 33.57576 | 130.45760 | 44 ft | 4 kts | 329° |
| 2026-05-09 04:59 | 33.57577 | 130.45759 | 44 ft | 0 kts | 329° |
| 2026-05-09 05:01 | 33.57618 | 130.45731 | 43 ft | 24 kts | 330° |
| 2026-05-09 05:01 | 33.57947 | 130.45507 | 39 ft | 89 kts | 330° |
| 2026-05-09 05:01 | 33.58665 | 130.45018 | 48 ft | 145 kts | 330° |
| 2026-05-09 05:01 | 33.59628 | 130.44358 | 385 ft | 172 kts | 328° |
| 2026-05-09 05:02 | 33.60738 | 130.43601 | 906 ft | 190 kts | 328° |
| 2026-05-09 05:02 | 33.61883 | 130.42835 | 1756 ft | 187 kts | 329° |
| 2026-05-09 05:02 | 33.63005 | 130.42097 | 2715 ft | 179 kts | 330° |
| 2026-05-09 05:02 | 33.64093 | 130.41395 | 3756 ft | 178 kts | 331° |
| 2026-05-09 05:03 | 33.65216 | 130.40645 | 4425 ft | 193 kts | 330° |
| 2026-05-09 05:03 | 33.66448 | 130.39792 | 4782 ft | 217 kts | 326° |
| 2026-05-09 05:03 | 33.67475 | 130.38440 | 5319 ft | 225 kts | 299° |
| 2026-05-09 05:03 | 33.67971 | 130.36580 | 5755 ft | 246 kts | 282° |
| 2026-05-09 05:04 | 33.68223 | 130.34513 | 6456 ft | 253 kts | 279° |
| 2026-05-09 05:04 | 33.68456 | 130.32414 | 7296 ft | 252 kts | 279° |
| 2026-05-09 05:04 | 33.68687 | 130.30322 | 8128 ft | 253 kts | 279° |
| 2026-05-09 05:04 | 33.68923 | 130.28224 | 8989 ft | 253 kts | 280° |
| 2026-05-09 05:05 | 33.69161 | 130.26132 | 9850 ft | 253 kts | 280° |
| 2026-05-09 05:05 | 33.69406 | 130.24015 | 10459 ft | 263 kts | 280° |
| 2026-05-09 05:05 | 33.69669 | 130.21771 | 10626 ft | 286 kts | 279° |
| 2026-05-09 05:05 | 33.69955 | 130.19337 | 11025 ft | 300 kts | 279° |
| 2026-05-09 05:06 | 33.70247 | 130.16839 | 11716 ft | 303 kts | 279° |
| 2026-05-09 05:06 | 33.70540 | 130.14332 | 12532 ft | 303 kts | 279° |
| 2026-05-09 05:06 | 33.70834 | 130.11825 | 13357 ft | 304 kts | 278° |
| 2026-05-09 05:06 | 33.71129 | 130.09301 | 14147 ft | 306 kts | 278° |
| 2026-05-09 05:07 | 33.71427 | 130.06758 | 14866 ft | 308 kts | 278° |
| 2026-05-09 05:07 | 33.71726 | 130.04204 | 15636 ft | 309 kts | 278° |
| 2026-05-09 05:07 | 33.72026 | 130.01640 | 16407 ft | 311 kts | 278° |
| 2026-05-09 05:07 | 33.72327 | 129.99060 | 17131 ft | 313 kts | 277° |
| 2026-05-09 05:08 | 33.72631 | 129.96451 | 17825 ft | 316 kts | 277° |
| 2026-05-09 05:08 | 33.72937 | 129.93817 | 18525 ft | 319 kts | 277° |
| 2026-05-09 05:08 | 33.73240 | 129.91212 | 19146 ft | 320 kts | 277° |
| 2026-05-09 05:08 | 33.73547 | 129.88562 | 19799 ft | 321 kts | 277° |
| 2026-05-09 05:09 | 33.73855 | 129.85905 | 20433 ft | 322 kts | 276° |
| 2026-05-09 05:09 | 33.74164 | 129.83228 | 21040 ft | 324 kts | 276° |
| 2026-05-09 05:09 | 33.74474 | 129.80538 | 21642 ft | 326 kts | 276° |
| 2026-05-09 05:09 | 33.74665 | 129.77826 | 22229 ft | 326 kts | 270° |
| 2026-05-09 05:10 | 33.74558 | 129.75097 | 22817 ft | 328 kts | 264° |
| 2026-05-09 05:10 | 33.74277 | 129.72371 | 23357 ft | 329 kts | 263° |
| 2026-05-09 05:10 | 33.73972 | 129.69636 | 23898 ft | 330 kts | 263° |
| 2026-05-09 05:10 | 33.73661 | 129.66878 | 24310 ft | 333 kts | 262° |
| 2026-05-09 05:11 | 33.73352 | 129.64108 | 24737 ft | 336 kts | 262° |
| 2026-05-09 05:11 | 33.73044 | 129.61318 | 25166 ft | 338 kts | 262° |
| 2026-05-09 05:11 | 33.72736 | 129.58511 | 25611 ft | 339 kts | 262° |
| 2026-05-09 05:11 | 33.72432 | 129.55728 | 26031 ft | 341 kts | 262° |
| 2026-05-09 05:12 | 33.72122 | 129.52888 | 26415 ft | 344 kts | 262° |
| 2026-05-09 05:12 | 33.71811 | 129.50034 | 26823 ft | 345 kts | 262° |
| 2026-05-09 05:12 | 33.71498 | 129.47166 | 27288 ft | 345 kts | 262° |
| 2026-05-09 05:12 | 33.71186 | 129.44316 | 27878 ft | 342 kts | 262° |
| 2026-05-09 05:13 | 33.70876 | 129.41490 | 28496 ft | 339 kts | 262° |
| 2026-05-09 05:13 | 33.70573 | 129.38729 | 29038 ft | 337 kts | 262° |
| 2026-05-09 05:13 | 33.70263 | 129.35908 | 29581 ft | 336 kts | 262° |
| 2026-05-09 05:13 | 33.69961 | 129.33170 | 30150 ft | 333 kts | 262° |
| 2026-05-09 05:14 | 33.69656 | 129.30414 | 30615 ft | 332 kts | 262° |
| 2026-05-09 05:14 | 33.69351 | 129.27661 | 30999 ft | 332 kts | 262° |
| 2026-05-09 05:14 | 33.69047 | 129.24912 | 31349 ft | 333 kts | 262° |
| 2026-05-09 05:14 | 33.68739 | 129.22129 | 31562 ft | 337 kts | 262° |
| 2026-05-09 05:15 | 33.68431 | 129.19347 | 31808 ft | 341 kts | 262° |
| 2026-05-09 05:15 | 33.68118 | 129.16520 | 32118 ft | 341 kts | 262° |
| 2026-05-09 05:15 | 33.67803 | 129.13684 | 32124 ft | 344 kts | 262° |
| 2026-05-09 05:16 | 33.67174 | 129.08033 | 32160 ft | 340 kts | 262° |
| 2026-05-09 05:16 | 33.66543 | 129.02394 | 32162 ft | 340 kts | 262° |
| 2026-05-09 05:17 | 33.65911 | 128.96762 | 32162 ft | 341 kts | 262° |
| 2026-05-09 05:17 | 33.65278 | 128.91150 | 32163 ft | 341 kts | 262° |
| 2026-05-09 05:18 | 33.64638 | 128.85506 | 32162 ft | 341 kts | 262° |
| 2026-05-09 05:18 | 33.63996 | 128.79859 | 32163 ft | 341 kts | 262° |
| 2026-05-09 05:19 | 33.63351 | 128.74210 | 32162 ft | 342 kts | 262° |
| 2026-05-09 05:19 | 33.62702 | 128.68550 | 32165 ft | 342 kts | 262° |
| 2026-05-09 05:20 | 33.62051 | 128.62899 | 32162 ft | 342 kts | 262° |
| 2026-05-09 05:20 | 33.61401 | 128.57277 | 32164 ft | 342 kts | 262° |
| 2026-05-09 05:21 | 33.60745 | 128.51624 | 32164 ft | 342 kts | 262° |
| 2026-05-09 05:21 | 33.60085 | 128.45967 | 32164 ft | 342 kts | 262° |
| 2026-05-09 05:22 | 33.59427 | 128.40339 | 32162 ft | 342 kts | 262° |
| 2026-05-09 05:22 | 33.58765 | 128.34696 | 32164 ft | 342 kts | 262° |
| 2026-05-09 05:23 | 33.58108 | 128.29051 | 32164 ft | 342 kts | 263° |
| 2026-05-09 05:23 | 33.57482 | 128.23406 | 32166 ft | 341 kts | 263° |
| 2026-05-09 05:24 | 33.56856 | 128.17760 | 32166 ft | 341 kts | 263° |
| 2026-05-09 05:24 | 33.56226 | 128.12121 | 32167 ft | 341 kts | 263° |
| 2026-05-09 05:25 | 33.55592 | 128.06474 | 32165 ft | 341 kts | 263° |
| 2026-05-09 05:25 | 33.54639 | 127.98047 | 32166 ft | 342 kts | 263° |
| 2026-05-09 05:26 | 33.53998 | 127.92400 | 32164 ft | 342 kts | 263° |
| 2026-05-09 05:26 | 33.53353 | 127.86753 | 32168 ft | 342 kts | 263° |
| 2026-05-09 05:27 | 33.52817 | 127.82072 | 32153 ft | 333 kts | 263° |
| 2026-05-09 05:27 | 33.52507 | 127.79379 | 32148 ft | 320 kts | 263° |
| 2026-05-09 05:27 | 33.52204 | 127.76748 | 32156 ft | 317 kts | 263° |
| 2026-05-09 05:28 | 33.51600 | 127.71510 | 31938 ft | 319 kts | 262° |
| 2026-05-09 05:28 | 33.51298 | 127.68899 | 31698 ft | 313 kts | 262° |
| 2026-05-09 05:28 | 33.51000 | 127.66325 | 31383 ft | 309 kts | 262° |
| 2026-05-09 05:29 | 33.50705 | 127.63785 | 31008 ft | 307 kts | 262° |
| 2026-05-09 05:29 | 33.50412 | 127.61269 | 30660 ft | 304 kts | 262° |
| 2026-05-09 05:29 | 33.50120 | 127.58765 | 30306 ft | 302 kts | 262° |
| 2026-05-09 05:29 | 33.49830 | 127.56281 | 29901 ft | 300 kts | 262° |
| 2026-05-09 05:30 | 33.49545 | 127.53847 | 29508 ft | 297 kts | 262° |
| 2026-05-09 05:30 | 33.49259 | 127.51400 | 29119 ft | 294 kts | 262° |
| 2026-05-09 05:30 | 33.48975 | 127.48988 | 28754 ft | 291 kts | 262° |
| 2026-05-09 05:30 | 33.48694 | 127.46595 | 28387 ft | 289 kts | 262° |
| 2026-05-09 05:31 | 33.48415 | 127.44225 | 28028 ft | 286 kts | 262° |
| 2026-05-09 05:31 | 33.48138 | 127.41875 | 27672 ft | 284 kts | 263° |
| 2026-05-09 05:31 | 33.47864 | 127.39547 | 27322 ft | 281 kts | 263° |
| 2026-05-09 05:31 | 33.47590 | 127.37238 | 26977 ft | 279 kts | 263° |
| 2026-05-09 05:32 | 33.47317 | 127.34935 | 26630 ft | 278 kts | 263° |
| 2026-05-09 05:32 | 33.47045 | 127.32646 | 26239 ft | 279 kts | 263° |
| 2026-05-09 05:32 | 33.46766 | 127.30306 | 25695 ft | 285 kts | 263° |
| 2026-05-09 05:32 | 33.46481 | 127.27929 | 25254 ft | 291 kts | 263° |
| 2026-05-09 05:33 | 33.46191 | 127.25510 | 24889 ft | 295 kts | 263° |
| 2026-05-09 05:33 | 33.45899 | 127.23073 | 24545 ft | 294 kts | 263° |
| 2026-05-09 05:33 | 33.45611 | 127.20681 | 24196 ft | 293 kts | 263° |
| 2026-05-09 05:33 | 33.45320 | 127.18275 | 23843 ft | 292 kts | 263° |
| 2026-05-09 05:34 | 33.45029 | 127.15863 | 23443 ft | 291 kts | 263° |
| 2026-05-09 05:34 | 33.44740 | 127.13473 | 23063 ft | 289 kts | 263° |
| 2026-05-09 05:34 | 33.44452 | 127.11093 | 22693 ft | 287 kts | 264° |
| 2026-05-09 05:34 | 33.44167 | 127.08740 | 22356 ft | 285 kts | 264° |
| 2026-05-09 05:35 | 33.43883 | 127.06399 | 22002 ft | 283 kts | 264° |
| 2026-05-09 05:35 | 33.43600 | 127.04074 | 21666 ft | 281 kts | 264° |
| 2026-05-09 05:35 | 33.43319 | 127.01765 | 21330 ft | 279 kts | 264° |
| 2026-05-09 05:35 | 33.43039 | 126.99473 | 20998 ft | 278 kts | 264° |
| 2026-05-09 05:36 | 33.42760 | 126.97190 | 20674 ft | 277 kts | 264° |
| 2026-05-09 05:36 | 33.42483 | 126.94917 | 20350 ft | 276 kts | 264° |
| 2026-05-09 05:36 | 33.42205 | 126.92650 | 20029 ft | 275 kts | 264° |
| 2026-05-09 05:36 | 33.41927 | 126.90382 | 19713 ft | 277 kts | 264° |
| 2026-05-09 05:37 | 33.41645 | 126.88087 | 19361 ft | 281 kts | 264° |
| 2026-05-09 05:37 | 33.41359 | 126.85750 | 19032 ft | 289 kts | 264° |
| 2026-05-09 05:37 | 33.41065 | 126.83360 | 18670 ft | 295 kts | 264° |
| 2026-05-09 05:37 | 33.40763 | 126.80917 | 18279 ft | 297 kts | 264° |
| 2026-05-09 05:38 | 33.40459 | 126.78466 | 17909 ft | 296 kts | 264° |
| 2026-05-09 05:38 | 33.40157 | 126.76026 | 17546 ft | 295 kts | 264° |
| 2026-05-09 05:38 | 33.39855 | 126.73599 | 17197 ft | 294 kts | 264° |
| 2026-05-09 05:38 | 33.39559 | 126.71211 | 16865 ft | 291 kts | 264° |
| 2026-05-09 05:39 | 33.39260 | 126.68814 | 16544 ft | 290 kts | 264° |
| 2026-05-09 05:39 | 33.38977 | 126.66432 | 16219 ft | 287 kts | 268° |
| 2026-05-09 05:39 | 33.39230 | 126.64096 | 15893 ft | 282 kts | 291° |
| 2026-05-09 05:39 | 33.40181 | 126.62063 | 15594 ft | 281 kts | 307° |
| 2026-05-09 05:40 | 33.41619 | 126.60469 | 15243 ft | 284 kts | 325° |
| 2026-05-09 05:40 | 33.43350 | 126.59335 | 14968 ft | 284 kts | 330° |
| 2026-05-09 05:40 | 33.45123 | 126.58269 | 14638 ft | 285 kts | 330° |
| 2026-05-09 05:40 | 33.46897 | 126.57213 | 14330 ft | 285 kts | 331° |
| 2026-05-09 05:41 | 33.48678 | 126.56143 | 13904 ft | 289 kts | 331° |
| 2026-05-09 05:41 | 33.50485 | 126.55050 | 13501 ft | 291 kts | 331° |
| 2026-05-09 05:41 | 33.52289 | 126.53953 | 13164 ft | 290 kts | 331° |
| 2026-05-09 05:41 | 33.54082 | 126.52858 | 12814 ft | 288 kts | 331° |
| 2026-05-09 05:42 | 33.55839 | 126.51783 | 12511 ft | 286 kts | 331° |
| 2026-05-09 05:42 | 33.57607 | 126.50700 | 12212 ft | 284 kts | 332° |
| 2026-05-09 05:42 | 33.59364 | 126.49622 | 11894 ft | 282 kts | 332° |
| 2026-05-09 05:42 | 33.61102 | 126.48556 | 11585 ft | 280 kts | 332° |
| 2026-05-09 05:43 | 33.62833 | 126.47493 | 11279 ft | 278 kts | 332° |
| 2026-05-09 05:43 | 33.64555 | 126.46435 | 10969 ft | 277 kts | 332° |
| 2026-05-09 05:43 | 33.66264 | 126.45385 | 10656 ft | 275 kts | 332° |
| 2026-05-09 05:43 | 33.67966 | 126.44339 | 10349 ft | 274 kts | 333° |
| 2026-05-09 05:44 | 33.69645 | 126.43287 | 10148 ft | 269 kts | 328° |
| 2026-05-09 05:44 | 33.70973 | 126.41765 | 9981 ft | 263 kts | 307° |
| 2026-05-09 05:44 | 33.71765 | 126.39788 | 9722 ft | 264 kts | 288° |
| 2026-05-09 05:44 | 33.72101 | 126.37635 | 9514 ft | 261 kts | 283° |
| 2026-05-09 05:45 | 33.72377 | 126.35492 | 9264 ft | 258 kts | 282° |
| 2026-05-09 05:45 | 33.72597 | 126.33310 | 8634 ft | 270 kts | 271° |
| 2026-05-09 05:45 | 33.72123 | 126.31129 | 8074 ft | 282 kts | 244° |
| 2026-05-09 05:45 | 33.70811 | 126.29333 | 7516 ft | 292 kts | 218° |
| 2026-05-09 05:46 | 33.68965 | 126.28291 | 6975 ft | 298 kts | 195° |
| 2026-05-09 05:46 | 33.66932 | 126.27796 | 6475 ft | 298 kts | 191° |
| 2026-05-09 05:46 | 33.64891 | 126.27374 | 6046 ft | 295 kts | 190° |
| 2026-05-09 05:46 | 33.62873 | 126.26962 | 5610 ft | 293 kts | 190° |
| 2026-05-09 05:47 | 33.60870 | 126.26551 | 5183 ft | 290 kts | 190° |
| 2026-05-09 05:47 | 33.58911 | 126.26143 | 4756 ft | 288 kts | 190° |
| 2026-05-09 05:47 | 33.56949 | 126.25729 | 4316 ft | 285 kts | 190° |
| 2026-05-09 05:47 | 33.55003 | 126.25316 | 3869 ft | 283 kts | 190° |
| 2026-05-09 05:48 | 33.53079 | 126.24902 | 3452 ft | 280 kts | 190° |
| 2026-05-09 05:48 | 33.51171 | 126.24489 | 3060 ft | 276 kts | 190° |
| 2026-05-09 05:48 | 33.49339 | 126.24091 | 2992 ft | 259 kts | 190° |
| 2026-05-09 05:48 | 33.47612 | 126.23822 | 2940 ft | 243 kts | 174° |
| 2026-05-09 05:49 | 33.46137 | 126.24583 | 2900 ft | 229 kts | 133° |
| 2026-05-09 05:49 | 33.45205 | 126.26093 | 2920 ft | 228 kts | 123° |
| 2026-05-09 05:49 | 33.44203 | 126.27600 | 2908 ft | 235 kts | 130° |
| 2026-05-09 05:49 | 33.43003 | 126.28996 | 2898 ft | 245 kts | 135° |
| 2026-05-09 05:50 | 33.42166 | 126.30678 | 2879 ft | 230 kts | 97° |
| 2026-05-09 05:50 | 33.42400 | 126.32426 | 2886 ft | 211 kts | 56° |
| 2026-05-09 05:50 | 33.43195 | 126.33821 | 2895 ft | 199 kts | 54° |
| 2026-05-09 05:50 | 33.43939 | 126.35154 | 2855 ft | 185 kts | 54° |
| 2026-05-09 05:51 | 33.44668 | 126.36393 | 2671 ft | 178 kts | 53° |
| 2026-05-09 05:51 | 33.45298 | 126.37630 | 2511 ft | 168 kts | 58° |
| 2026-05-09 05:51 | 33.45876 | 126.38822 | 2217 ft | 163 kts | 56° |
| 2026-05-09 05:51 | 33.46453 | 126.39965 | 1974 ft | 157 kts | 56° |
| 2026-05-09 05:52 | 33.47029 | 126.41071 | 1758 ft | 162 kts | 56° |
| 2026-05-09 05:52 | 33.47617 | 126.42215 | 1433 ft | 159 kts | 57° |
| 2026-05-09 05:52 | 33.48188 | 126.43316 | 1102 ft | 150 kts | 56° |
| 2026-05-09 05:52 | 33.48726 | 126.44359 | 781 ft | 149 kts | 58° |
| 2026-05-09 05:53 | 33.49247 | 126.45402 | 473 ft | 143 kts | 55° |
| 2026-05-09 05:53 | 33.49751 | 126.46372 | 240 ft | 132 kts | 57° |
| 2026-05-09 05:53 | 33.50240 | 126.47335 | 101 ft | 132 kts | 57° |
| 2026-05-09 05:53 | 33.50646 | 126.48117 | 92 ft | 83 kts | 58° |
| 2026-05-09 05:54 | 33.50847 | 126.48511 | 92 ft | 39 kts | 63° |
| 2026-05-09 05:54 | 33.50885 | 126.48740 | 90 ft | 14 kts | 88° |
| 2026-05-09 05:54 | 33.50886 | 126.48786 | 91 ft | 1 kts | 88° |
| 2026-05-09 05:54 | 33.50886 | 126.48793 | 89 ft | 1 kts | 88° |
| 2026-05-09 05:55 | 33.50887 | 126.48804 | 90 ft | 3 kts | 88° |
| 2026-05-09 05:55 | 33.50888 | 126.48867 | 91 ft | 10 kts | 88° |
| 2026-05-09 05:55 | 33.50893 | 126.48968 | 91 ft | 14 kts | 76° |
| 2026-05-09 05:55 | 33.50943 | 126.49076 | 87 ft | 16 kts | 58° |
| 2026-05-09 05:56 | 33.51003 | 126.49193 | 88 ft | 17 kts | 58° |
| 2026-05-09 05:56 | 33.51045 | 126.49322 | 88 ft | 17 kts | 115° |
| 2026-05-09 05:56 | 33.50952 | 126.49393 | 92 ft | 16 kts | 173° |
| 2026-05-09 05:56 | 33.50884 | 126.49311 | 91 ft | 14 kts | 238° |
| 2026-05-09 05:57 | 33.50824 | 126.49196 | 91 ft | 17 kts | 239° |
| 2026-05-09 05:57 | 33.50756 | 126.49156 | 90 ft | 10 kts | 148° |
| 2026-05-09 05:57 | 33.50710 | 126.49182 | 89 ft | 0 kts | 156° |
| 2026-05-09 05:57 | 33.50707 | 126.49184 | 89 ft | 0 kts | 156° |